Crooks, South Dakota
Current Conditions -  °F | °C
As of 11:56 PM on Thursday 30 Oct 2014 (Local Time) from KFSD Reporting Station
Clear Clear  
Wind Chill: 20°   Ceiling: Unl
Heat Index: 30°   Visibility: 10mi
Dew Point: 20°   Wind: 14mph
Humidity: 66%   Direction: 350°N
Pressure: 30.48"   Gusts: NA
Location:  43.66°N, 96.81°W
Report Text: KFSD 310456Z 35012KT 10SM CLR M01/M07 A3048 RMK AO2 PK WND 01026/0403 SLP334 T10111067
Loading
Personal Weather Stations






























Interactive Weather Map
Tropical Storm Tracking
New forecast layout! Learn more

10-Day Weather Forecast

Advertisements
Track Severe Weather on mobile